Emslake — V2FL4 — position and weather

sailwx.info

Track history (hours):
 
Tides and Currents Weather Stations Pressure Air Temp Water Temp Dewpoint Dewpoint Depression Visibility Wind Speed Wind Dir Waves Ship Positions

Emslake

Last reported at 2015-Mar-02 04:33 UTC. Time now 2015-Mar-07 04:31 UTC.
Position N 57°21' E 017°44'.

Length 100 m; draft 5.9 m.

Type: Cargo ship. MMSI: 305712000.

Date/timePositionNaut miles runAvg speedWind from/ knotsBaromVisibWave heightAir tempDewpointWater temp
2015-Mar-02 04:33N 57°21' E 017°44'1110.2
2015-Mar-02 03:28N 57°11' E 017°36'115 9.7
2015-Mar-01 15:33N 55°39' E 015°30'1010.0
2015-Mar-01 14:33N 55°34' E 015°14'10 9.6
2015-Mar-01 13:34N 55°30' E 014°60'10 9.8
2015-Mar-01 12:33N 55°25' E 014°45'1010.1
2015-Mar-01 11:33N 55°17' E 014°32'10 9.9
2015-Mar-01 10:34N 55°10' E 014°21'10 9.7
2015-Mar-01 09:33N 55°02' E 014°10'9 9.1
2015-Mar-01 08:33N 54°59' E 013°55'9 9.4
2015-Mar-01 07:34N 54°56' E 013°40'10 9.7
2015-Mar-01 06:29N 54°53' E 013°23'910.1
2015-Mar-01 05:33N 54°50' E 013°07'10 9.9
2015-Mar-01 04:33N 54°46' E 012°51'10 9.7
2015-Mar-01 03:32N 54°42' E 012°36'10 9.9
2015-Mar-01 02:33N 54°36' E 012°22'1010.0
2015-Mar-01 01:33N 54°27' E 012°14'9 9.5
2015-Mar-01 00:33N 54°25' E 011°58'1010.0
2015-Feb-28 23:33N 54°26' E 011°41'10 9.8
2015-Feb-28 22:33N 54°30' E 011°26'10 9.6
2015-Feb-28 21:33N 54°34' E 011°11'9 8.8
2015-Feb-28 20:32N 54°34' E 010°56'10 9.9
2015-Feb-28 19:33N 54°33' E 010°39'10 9.9
2015-Feb-28 18:34N 54°30' E 010°22'10 9.5
2015-Feb-28 17:34N 54°23' E 010°12'2 2.5
2015-Feb-28 16:33N 54°22' E 010°08'5 5.4
2015-Feb-28 15:34N 54°21' E 009°59'5 5.4
2015-Feb-28 14:33N 54°22' E 009°50'7 7.1
2015-Feb-28 13:33N 54°17' E 009°40'8 7.9
2015-Feb-28 12:33N 54°11' E 009°31'3 3.3
2015-Feb-28 11:31N 54°10' E 009°26'6 6.5
2015-Feb-28 10:34N 54°05' E 009°19'8 8.5
2015-Feb-28 09:33N 53°57' E 009°14'5 4.9
2015-Feb-28 08:34N 53°54' E 009°09'8 8.2
2015-Feb-28 07:34N 53°51' E 008°56'7 6.7
2015-Feb-28 06:31N 53°52' E 008°44'0 0.0
2015-Feb-28 05:31N 53°52' E 008°44'0 0.0
2015-Feb-28 04:31N 53°52' E 008°44'0 0.1
2015-Feb-28 03:28N 53°53' E 008°44'2 2.6
2015-Feb-28 02:33N 53°54' E 008°41'8 8.5
2015-Feb-28 01:33N 53°58' E 008°29'10 9.6
2015-Feb-28 00:33N 53°60' E 008°12'9 8.5
2015-Feb-27 23:33N 53°58' E 007°58'8 7.7
2015-Feb-27 22:33N 53°56' E 007°45'7 7.2
2015-Feb-27 21:34N 53°55' E 007°34'7 7.1
2015-Feb-27 20:33N 53°53' E 007°22'7 7.2
2015-Feb-27 19:33N 53°51' E 007°10'8 7.5
2015-Feb-27 18:30N 53°49' E 006°57'20 8.6
2015-Feb-27 16:10N 53°44' E 006°24'710.8
2015-Feb-27 15:33N 53°42' E 006°13'1111.1
2015-Feb-27 14:33N 53°39' E 005°55'1111.3
2015-Feb-27 13:34N 53°35' E 005°37'1111.3
2015-Feb-27 12:34N 53°32' E 005°19'1111.5
2015-Feb-27 11:34N 53°28' E 005°01'1211.6
2015-Feb-27 10:33N 53°23' E 004°43'2210.9
2015-Feb-27 08:33N 53°04' E 004°25'1010.0
2015-Feb-27 07:34N 52°55' E 004°17'10 9.5
2015-Feb-27 06:33N 52°47' E 004°10'9 9.2
2015-Feb-27 05:33N 52°39' E 004°02'9 9.0
2015-Feb-27 04:33N 52°31' E 003°55'9 8.7
2015-Feb-27 03:33N 52°22' E 003°52'8 8.4
2015-Feb-27 02:33N 52°14' E 003°53'9 8.6
2015-Feb-27 01:33N 52°05' E 003°54'7 6.7
2015-Feb-27 00:33N 52°00' E 004°01'1111.1
2015-Feb-26 23:34N 51°54' E 004°16'8 7.8
2015-Feb-26 22:34N 51°50' E 004°27'7 7.4
2015-Feb-26 21:34N 51°48' E 004°38'0 0.3
2015-Feb-26 20:32N 51°48' E 004°38'0 0.0
2015-Feb-26 19:32N 51°48' E 004°38'0 0.0
2015-Feb-26 18:32N 51°48' E 004°38'0 0.0
2015-Feb-26 17:32N 51°48' E 004°38'0 0.0
2015-Feb-26 16:32N 51°48' E 004°38'0 0.0
2015-Feb-26 15:32N 51°48' E 004°38'0 0.0
2015-Feb-26 14:32N 51°48' E 004°38'0 0.0
2015-Feb-26 13:32N 51°48' E 004°38'0 0.0
2015-Feb-26 12:32N 51°48' E 004°38'0 0.0
2015-Feb-26 11:32N 51°48' E 004°38'0 0.0
2015-Feb-26 10:32N 51°48' E 004°38'0 0.0
2015-Feb-26 09:32N 51°48' E 004°38'0 0.0
2015-Feb-26 08:32N 51°48' E 004°38'0 0.0
2015-Feb-26 07:29N 51°48' E 004°38'0 0.0
2015-Feb-26 06:32N 51°48' E 004°38'0 0.0
2015-Feb-26 05:32N 51°48' E 004°38'0 0.0
2015-Feb-26 04:32N 51°48' E 004°38'0 0.0
2015-Feb-26 03:32N 51°48' E 004°38'0 0.0
2015-Feb-26 02:32N 51°48' E 004°38'0 0.0
2015-Feb-26 01:32N 51°48' E 004°38'0 0.0
2015-Feb-26 00:32N 51°48' E 004°38'0 0.0
2015-Feb-25 23:32N 51°48' E 004°38'0 0.0
2015-Feb-25 22:32N 51°48' E 004°38'0 0.0
2015-Feb-25 21:29N 51°48' E 004°38'0 0.0
2015-Feb-25 20:29N 51°48' E 004°38'0 0.0
2015-Feb-25 19:32N 51°48' E 004°38'0 0.1
2015-Feb-25 18:32N 51°48' E 004°38'0 0.0
2015-Feb-25 17:29N 51°48' E 004°38'0 0.0
2015-Feb-25 16:32N 51°48' E 004°38'0 0.0
2015-Feb-25 15:32N 51°48' E 004°38'0 0.0
2015-Feb-25 14:32N 51°48' E 004°38'0 0.0
2015-Feb-25 13:32N 51°48' E 004°38'0 0.0
2015-Feb-25 12:32N 51°48' E 004°38'0 0.0
2015-Feb-25 11:29N 51°48' E 004°38'0 0.0
2015-Feb-25 10:32N 51°48' E 004°38'0 0.0
2015-Feb-25 09:32N 51°48' E 004°38'0 0.0
2015-Feb-25 08:32N 51°48' E 004°38'0 0.0
2015-Feb-25 07:29N 51°48' E 004°38'0 0.0
2015-Feb-25 06:32N 51°48' E 004°38'0 0.0
2015-Feb-25 05:32N 51°48' E 004°38'0 0.0
2015-Feb-25 04:32N 51°48' E 004°38'0 0.0
2015-Feb-25 03:32N 51°48' E 004°38'0 0.0
2015-Feb-25 02:32N 51°48' E 004°38'0 0.0
2015-Feb-25 01:29N 51°48' E 004°38'0 0.0
2015-Feb-25 00:29N 51°48' E 004°38'0 0.0
2015-Feb-24 23:32N 51°48' E 004°38'0 0.0
2015-Feb-24 22:32N 51°48' E 004°38'0 0.0
2015-Feb-24 21:32N 51°48' E 004°38'0 0.0
2015-Feb-24 20:32N 51°48' E 004°38'0 0.0
2015-Feb-24 19:32N 51°48' E 004°38'0 0.0
2015-Feb-24 18:32N 51°48' E 004°38'0 0.0
2015-Feb-24 17:29N 51°48' E 004°38'0 0.0
2015-Feb-24 16:29N 51°48' E 004°38'0 0.0
2015-Feb-24 15:32N 51°48' E 004°38'0 0.0
2015-Feb-24 14:32N 51°48' E 004°38'0 0.0
2015-Feb-24 13:32N 51°48' E 004°38'0 0.0
2015-Feb-24 12:32N 51°48' E 004°38'0 0.0
2015-Feb-24 11:26N 51°48' E 004°38'0 0.0
2015-Feb-24 10:32N 51°48' E 004°38'0 0.0
2015-Feb-24 09:32N 51°48' E 004°38'0 0.0
2015-Feb-24 08:32N 51°48' E 004°38'0 0.0
2015-Feb-24 07:32N 51°48' E 004°38'0 0.0
2015-Feb-24 06:32N 51°48' E 004°38'1 0.7
2015-Feb-24 05:33N 51°48' E 004°37'8 7.8
2015-Feb-24 04:33N 51°50' E 004°25'5 5.2
2015-Feb-24 03:34N 51°54' E 004°19'8 8.0
2015-Feb-24 02:33N 51°58' E 004°08'8 7.7
2015-Feb-24 01:33N 51°60' E 003°56'9 8.8
2015-Feb-24 00:33N 51°57' E 003°42'5 4.9
2015-Feb-23 23:29N 51°55' E 003°35'0 0.1
2015-Feb-23 22:05N 51°55' E 003°35'0 0.0
2015-Feb-23 21:26N 51°55' E 003°35'0 0.0
2015-Feb-23 20:17N 51°55' E 003°35'0 0.0
2015-Feb-23 15:17N 51°55' E 003°35'0 0.1
2015-Feb-23 13:32N 51°55' E 003°34'0 0.0
2015-Feb-23 09:11N 51°55' E 003°35'0 0.0
2015-Feb-23 07:05N 51°55' E 003°35'0 0.0
2015-Feb-23 06:29N 51°55' E 003°35'0 0.0
2015-Feb-23 05:32N 51°55' E 003°35'3 3.3
2015-Feb-23 04:32N 51°56' E 003°29'36 8.8
2015-Feb-23 00:28N 51°43' E 002°35'6 6.9
2015-Feb-22 23:33N 51°38' E 002°29'7 6.8
2015-Feb-22 22:33N 51°33' E 002°22'7 6.8
2015-Feb-22 21:34N 51°28' E 002°14'7 7.5
2015-Feb-22 20:34N 51°21' E 002°09'8 8.4
2015-Feb-22 19:34N 51°14' E 002°03'9 9.3
2015-Feb-22 18:34N 51°09' E 001°51'1110.7
2015-Feb-22 17:33N 51°01' E 001°39'1211.6
2015-Feb-22 16:32N 50°51' E 001°28'313 8.9
2015-Feb-21 05:33N 48°24' W 005°38'9 8.6
2015-Feb-21 04:33N 48°16' W 005°33'9 9.0
2015-Feb-21 03:33N 48°08' W 005°28'10 9.8
2015-Feb-21 02:33N 47°58' W 005°24'1010.0
2015-Feb-21 01:33N 47°49' W 005°19'  
Track history (hours):
 
Tides and Currents Weather Stations Pressure Air Temp Water Temp Dewpoint Dewpoint Depression Visibility Wind Speed Wind Dir Waves Ship Positions

Emslake

Last reported at 2015-Mar-02 04:33 UTC. Time now 2015-Mar-07 04:31 UTC.
Position N 57°21' E 017°44'.

Length 100 m; draft 5.9 m.

Type: Cargo ship. MMSI: 305712000.

Date/timePositionNaut miles runAvg speedWind from/ knotsBaromVisibWave heightAir tempDewpointWater temp
2015-Mar-02 04:33N 57°21' E 017°44'1110.2
2015-Mar-02 03:28N 57°11' E 017°36'115 9.7
2015-Mar-01 15:33N 55°39' E 015°30'1010.0
2015-Mar-01 14:33N 55°34' E 015°14'10 9.6
2015-Mar-01 13:34N 55°30' E 014°60'10 9.8
2015-Mar-01 12:33N 55°25' E 014°45'1010.1
2015-Mar-01 11:33N 55°17' E 014°32'10 9.9
2015-Mar-01 10:34N 55°10' E 014°21'10 9.7
2015-Mar-01 09:33N 55°02' E 014°10'9 9.1
2015-Mar-01 08:33N 54°59' E 013°55'9 9.4
2015-Mar-01 07:34N 54°56' E 013°40'10 9.7
2015-Mar-01 06:29N 54°53' E 013°23'910.1
2015-Mar-01 05:33N 54°50' E 013°07'10 9.9
2015-Mar-01 04:33N 54°46' E 012°51'10 9.7
2015-Mar-01 03:32N 54°42' E 012°36'10 9.9
2015-Mar-01 02:33N 54°36' E 012°22'1010.0
2015-Mar-01 01:33N 54°27' E 012°14'9 9.5
2015-Mar-01 00:33N 54°25' E 011°58'1010.0
2015-Feb-28 23:33N 54°26' E 011°41'10 9.8
2015-Feb-28 22:33N 54°30' E 011°26'10 9.6
2015-Feb-28 21:33N 54°34' E 011°11'9 8.8
2015-Feb-28 20:32N 54°34' E 010°56'10 9.9
2015-Feb-28 19:33N 54°33' E 010°39'10 9.9
2015-Feb-28 18:34N 54°30' E 010°22'10 9.5
2015-Feb-28 17:34N 54°23' E 010°12'2 2.5
2015-Feb-28 16:33N 54°22' E 010°08'5 5.4
2015-Feb-28 15:34N 54°21' E 009°59'5 5.4
2015-Feb-28 14:33N 54°22' E 009°50'7 7.1
2015-Feb-28 13:33N 54°17' E 009°40'8 7.9
2015-Feb-28 12:33N 54°11' E 009°31'3 3.3
2015-Feb-28 11:31N 54°10' E 009°26'6 6.5
2015-Feb-28 10:34N 54°05' E 009°19'8 8.5
2015-Feb-28 09:33N 53°57' E 009°14'5 4.9
2015-Feb-28 08:34N 53°54' E 009°09'8 8.2
2015-Feb-28 07:34N 53°51' E 008°56'7 6.7
2015-Feb-28 06:31N 53°52' E 008°44'0 0.0
2015-Feb-28 05:31N 53°52' E 008°44'0 0.0
2015-Feb-28 04:31N 53°52' E 008°44'0 0.1
2015-Feb-28 03:28N 53°53' E 008°44'2 2.6
2015-Feb-28 02:33N 53°54' E 008°41'8 8.5
2015-Feb-28 01:33N 53°58' E 008°29'10 9.6
2015-Feb-28 00:33N 53°60' E 008°12'9 8.5
2015-Feb-27 23:33N 53°58' E 007°58'8 7.7
2015-Feb-27 22:33N 53°56' E 007°45'7 7.2
2015-Feb-27 21:34N 53°55' E 007°34'7 7.1
2015-Feb-27 20:33N 53°53' E 007°22'7 7.2
2015-Feb-27 19:33N 53°51' E 007°10'8 7.5
2015-Feb-27 18:30N 53°49' E 006°57'20 8.6
2015-Feb-27 16:10N 53°44' E 006°24'710.8
2015-Feb-27 15:33N 53°42' E 006°13'1111.1
2015-Feb-27 14:33N 53°39' E 005°55'1111.3
2015-Feb-27 13:34N 53°35' E 005°37'1111.3
2015-Feb-27 12:34N 53°32' E 005°19'1111.5
2015-Feb-27 11:34N 53°28' E 005°01'1211.6
2015-Feb-27 10:33N 53°23' E 004°43'2210.9
2015-Feb-27 08:33N 53°04' E 004°25'1010.0
2015-Feb-27 07:34N 52°55' E 004°17'10 9.5
2015-Feb-27 06:33N 52°47' E 004°10'9 9.2
2015-Feb-27 05:33N 52°39' E 004°02'9 9.0
2015-Feb-27 04:33N 52°31' E 003°55'9 8.7
2015-Feb-27 03:33N 52°22' E 003°52'8 8.4
2015-Feb-27 02:33N 52°14' E 003°53'9 8.6
2015-Feb-27 01:33N 52°05' E 003°54'7 6.7
2015-Feb-27 00:33N 52°00' E 004°01'1111.1
2015-Feb-26 23:34N 51°54' E 004°16'8 7.8
2015-Feb-26 22:34N 51°50' E 004°27'7 7.4
2015-Feb-26 21:34N 51°48' E 004°38'0 0.3
2015-Feb-26 20:32N 51°48' E 004°38'0 0.0
2015-Feb-26 19:32N 51°48' E 004°38'0 0.0
2015-Feb-26 18:32N 51°48' E 004°38'0 0.0
2015-Feb-26 17:32N 51°48' E 004°38'0 0.0
2015-Feb-26 16:32N 51°48' E 004°38'0 0.0
2015-Feb-26 15:32N 51°48' E 004°38'0 0.0
2015-Feb-26 14:32N 51°48' E 004°38'0 0.0
2015-Feb-26 13:32N 51°48' E 004°38'0 0.0
2015-Feb-26 12:32N 51°48' E 004°38'0 0.0
2015-Feb-26 11:32N 51°48' E 004°38'0 0.0
2015-Feb-26 10:32N 51°48' E 004°38'0 0.0
2015-Feb-26 09:32N 51°48' E 004°38'0 0.0
2015-Feb-26 08:32N 51°48' E 004°38'0 0.0
2015-Feb-26 07:29N 51°48' E 004°38'0 0.0
2015-Feb-26 06:32N 51°48' E 004°38'0 0.0
2015-Feb-26 05:32N 51°48' E 004°38'0 0.0
2015-Feb-26 04:32N 51°48' E 004°38'0 0.0
2015-Feb-26 03:32N 51°48' E 004°38'0 0.0
2015-Feb-26 02:32N 51°48' E 004°38'0 0.0
2015-Feb-26 01:32N 51°48' E 004°38'0 0.0
2015-Feb-26 00:32N 51°48' E 004°38'0 0.0
2015-Feb-25 23:32N 51°48' E 004°38'0 0.0
2015-Feb-25 22:32N 51°48' E 004°38'0 0.0
2015-Feb-25 21:29N 51°48' E 004°38'0 0.0
2015-Feb-25 20:29N 51°48' E 004°38'0 0.0
2015-Feb-25 19:32N 51°48' E 004°38'0 0.1
2015-Feb-25 18:32N 51°48' E 004°38'0 0.0
2015-Feb-25 17:29N 51°48' E 004°38'0 0.0
2015-Feb-25 16:32N 51°48' E 004°38'0 0.0
2015-Feb-25 15:32N 51°48' E 004°38'0 0.0
2015-Feb-25 14:32N 51°48' E 004°38'0 0.0
2015-Feb-25 13:32N 51°48' E 004°38'0 0.0
2015-Feb-25 12:32N 51°48' E 004°38'0 0.0
2015-Feb-25 11:29N 51°48' E 004°38'0 0.0
2015-Feb-25 10:32N 51°48' E 004°38'0 0.0
2015-Feb-25 09:32N 51°48' E 004°38'0 0.0
2015-Feb-25 08:32N 51°48' E 004°38'0 0.0
2015-Feb-25 07:29N 51°48' E 004°38'0 0.0
2015-Feb-25 06:32N 51°48' E 004°38'0 0.0
2015-Feb-25 05:32N 51°48' E 004°38'0 0.0
2015-Feb-25 04:32N 51°48' E 004°38'0 0.0
2015-Feb-25 03:32N 51°48' E 004°38'0 0.0
2015-Feb-25 02:32N 51°48' E 004°38'0 0.0
2015-Feb-25 01:29N 51°48' E 004°38'0 0.0
2015-Feb-25 00:29N 51°48' E 004°38'0 0.0
2015-Feb-24 23:32N 51°48' E 004°38'0 0.0
2015-Feb-24 22:32N 51°48' E 004°38'0 0.0
2015-Feb-24 21:32N 51°48' E 004°38'0 0.0
2015-Feb-24 20:32N 51°48' E 004°38'0 0.0
2015-Feb-24 19:32N 51°48' E 004°38'0 0.0
2015-Feb-24 18:32N 51°48' E 004°38'0 0.0
2015-Feb-24 17:29N 51°48' E 004°38'0 0.0
2015-Feb-24 16:29N 51°48' E 004°38'0 0.0
2015-Feb-24 15:32N 51°48' E 004°38'0 0.0
2015-Feb-24 14:32N 51°48' E 004°38'0 0.0
2015-Feb-24 13:32N 51°48' E 004°38'0 0.0
2015-Feb-24 12:32N 51°48' E 004°38'0 0.0
2015-Feb-24 11:26N 51°48' E 004°38'0 0.0
2015-Feb-24 10:32N 51°48' E 004°38'0 0.0
2015-Feb-24 09:32N 51°48' E 004°38'0 0.0
2015-Feb-24 08:32N 51°48' E 004°38'0 0.0
2015-Feb-24 07:32N 51°48' E 004°38'0 0.0
2015-Feb-24 06:32N 51°48' E 004°38'1 0.7
2015-Feb-24 05:33N 51°48' E 004°37'8 7.8
2015-Feb-24 04:33N 51°50' E 004°25'5 5.2
2015-Feb-24 03:34N 51°54' E 004°19'8 8.0
2015-Feb-24 02:33N 51°58' E 004°08'8 7.7
2015-Feb-24 01:33N 51°60' E 003°56'9 8.8
2015-Feb-24 00:33N 51°57' E 003°42'5 4.9
2015-Feb-23 23:29N 51°55' E 003°35'0 0.1
2015-Feb-23 22:05N 51°55' E 003°35'0 0.0
2015-Feb-23 21:26N 51°55' E 003°35'0 0.0
2015-Feb-23 20:17N 51°55' E 003°35'0 0.0
2015-Feb-23 15:17N 51°55' E 003°35'0 0.1
2015-Feb-23 13:32N 51°55' E 003°34'0 0.0
2015-Feb-23 09:11N 51°55' E 003°35'0 0.0
2015-Feb-23 07:05N 51°55' E 003°35'0 0.0
2015-Feb-23 06:29N 51°55' E 003°35'0 0.0
2015-Feb-23 05:32N 51°55' E 003°35'3 3.3
2015-Feb-23 04:32N 51°56' E 003°29'36 8.8
2015-Feb-23 00:28N 51°43' E 002°35'6 6.9
2015-Feb-22 23:33N 51°38' E 002°29'7 6.8
2015-Feb-22 22:33N 51°33' E 002°22'7 6.8
2015-Feb-22 21:34N 51°28' E 002°14'7 7.5
2015-Feb-22 20:34N 51°21' E 002°09'8 8.4
2015-Feb-22 19:34N 51°14' E 002°03'9 9.3
2015-Feb-22 18:34N 51°09' E 001°51'1110.7
2015-Feb-22 17:33N 51°01' E 001°39'1211.6
2015-Feb-22 16:32N 50°51' E 001°28'313 8.9
2015-Feb-21 05:33N 48°24' W 005°38'9 8.6
2015-Feb-21 04:33N 48°16' W 005°33'9 9.0
2015-Feb-21 03:33N 48°08' W 005°28'10 9.8
2015-Feb-21 02:33N 47°58' W 005°24'1010.0
2015-Feb-21 01:33N 47°49' W 005°19'  

Dump ship's entire track history